createdAt,value
2019-04-03T00:01:43.270Z,100.00
2019-04-03T00:04:12.752Z,100.00
2019-04-03T00:06:42.149Z,100.00
2019-04-03T00:09:11.580Z,100.00
2019-04-03T00:11:41.051Z,100.00
2019-04-03T00:14:12.969Z,100.00
2019-04-03T00:16:43.759Z,100.00
2019-04-03T00:19:13.815Z,100.00
2019-04-03T00:21:45.578Z,100.00
2019-04-03T00:24:15.975Z,100.00
2019-04-03T00:26:45.359Z,100.00
2019-04-03T00:29:14.778Z,100.00
2019-04-03T00:31:44.096Z,100.00
2019-04-03T00:34:13.455Z,100.00
2019-04-03T00:36:42.909Z,100.00
2019-04-03T00:39:12.323Z,100.00
2019-04-03T00:41:41.707Z,100.00
2019-04-03T00:44:12.977Z,100.00
2019-04-03T00:46:42.308Z,100.00
2019-04-03T00:49:11.671Z,100.00
2019-04-03T00:51:41.006Z,100.00
2019-04-03T00:54:10.403Z,100.00
2019-04-03T00:56:39.748Z,100.00
2019-04-03T00:59:08.989Z,100.00
2019-04-03T01:01:38.312Z,100.00
2019-04-03T01:04:07.827Z,100.00
2019-04-03T01:06:40.237Z,100.00
2019-04-03T01:09:09.569Z,100.00
2019-04-03T01:11:38.903Z,100.00
2019-04-03T01:14:08.288Z,100.00
2019-04-03T01:16:37.492Z,100.00
2019-04-03T01:19:06.939Z,99.96
2019-04-03T01:21:37.195Z,99.24
2019-04-03T01:24:08.320Z,99.26
2019-04-03T01:26:40.345Z,98.11
2019-04-03T01:29:08.941Z,98.72
2019-04-03T01:31:38.250Z,98.18
2019-04-03T01:34:07.523Z,97.84
2019-04-03T01:36:37.168Z,98.05
2019-04-03T01:39:08.095Z,97.86
2019-04-03T01:41:37.376Z,97.49
2019-04-03T01:44:06.745Z,97.03
2019-04-03T01:46:35.940Z,97.46
2019-04-03T01:49:05.366Z,97.47
2019-04-03T01:51:34.808Z,97.30
2019-04-03T01:54:04.186Z,96.49
2019-04-03T01:56:33.849Z,96.55
2019-04-03T01:59:06.111Z,96.58
2019-04-03T02:01:37.912Z,96.64
2019-04-03T02:04:06.638Z,96.50
2019-04-03T02:06:35.915Z,96.20
2019-04-03T02:09:08.070Z,96.35
2019-04-03T02:11:37.379Z,96.19
2019-04-03T02:14:06.692Z,96.07
2019-04-03T02:16:41.928Z,95.79
2019-04-03T02:19:11.297Z,95.91
2019-04-03T02:21:40.587Z,95.91
2019-04-03T02:24:10.917Z,95.88
2019-04-03T02:26:42.432Z,95.26
2019-04-03T02:29:11.721Z,95.27
2019-04-03T02:31:40.953Z,94.97
2019-04-03T02:34:10.279Z,93.07
2019-04-03T02:36:43.298Z,92.96
2019-04-03T02:39:10.709Z,92.19
2019-04-03T02:41:40.111Z,92.52
2019-04-03T02:44:09.568Z,91.68
2019-04-03T02:46:38.837Z,91.65
2019-04-03T02:49:10.143Z,91.72
2019-04-03T02:51:39.942Z,91.03
2019-04-03T02:54:28.734Z,90.70
2019-04-03T02:56:58.401Z,90.14
2019-04-03T02:59:27.829Z,90.04
2019-04-03T03:01:57.146Z,89.60
2019-04-03T03:04:27.099Z,89.24
2019-04-03T03:06:56.444Z,88.45
2019-04-03T03:09:26.484Z,88.16
2019-04-03T03:11:57.015Z,88.21
2019-04-03T03:14:26.614Z,88.45
2019-04-03T03:16:56.040Z,88.09
2019-04-03T03:19:25.385Z,88.03
2019-04-03T03:21:58.778Z,87.75
2019-04-03T03:24:29.387Z,87.17
2019-04-03T03:27:02.119Z,86.91
2019-04-03T03:29:31.559Z,87.08
2019-04-03T03:32:10.761Z,86.97
2019-04-03T03:34:50.392Z,86.61
2019-04-03T03:37:03.998Z,87.00
2019-04-03T03:39:33.867Z,86.49
2019-04-03T03:42:03.436Z,86.66
2019-04-03T03:44:32.671Z,86.14
2019-04-03T03:47:02.953Z,86.65
2019-04-03T03:49:32.539Z,86.81
2019-04-03T03:52:03.955Z,86.68
2019-04-03T03:54:33.051Z,86.49
2019-04-03T03:57:04.746Z,86.64
2019-04-03T03:59:34.918Z,87.28
2019-04-03T04:02:06.160Z,87.56
2019-04-03T04:04:35.253Z,87.70
2019-04-03T04:07:05.139Z,87.62
2019-04-03T04:09:34.720Z,87.98
2019-04-03T04:12:06.029Z,88.27
2019-04-03T04:14:35.408Z,88.63
2019-04-03T04:17:09.485Z,88.52
2019-04-03T04:19:39.611Z,88.31
2019-04-03T04:22:08.904Z,88.39
2019-04-03T04:24:38.330Z,88.29
2019-04-03T04:27:07.740Z,88.57
2019-04-03T04:29:37.312Z,88.79
2019-04-03T04:32:06.836Z,89.10
2019-04-03T04:34:36.196Z,89.37
2019-04-03T04:37:05.624Z,89.39
2019-04-03T04:39:34.842Z,89.61
2019-04-03T04:42:04.705Z,89.76
2019-04-03T04:44:34.108Z,89.75
2019-04-03T04:47:03.386Z,89.81
2019-04-03T04:49:32.904Z,89.82
2019-04-03T04:52:02.476Z,89.61
2019-04-03T04:54:31.754Z,89.61
2019-04-03T04:57:02.037Z,89.55
2019-04-03T04:59:31.369Z,89.51
2019-04-03T05:02:02.512Z,89.72
2019-04-03T05:04:31.792Z,89.63
2019-04-03T05:07:01.177Z,89.70
2019-04-03T05:09:30.477Z,89.86
2019-04-03T05:11:59.966Z,89.74
2019-04-03T05:14:29.283Z,89.77
2019-04-03T05:16:58.641Z,89.86
2019-04-03T05:19:27.853Z,89.93
2019-04-03T05:21:57.122Z,89.95
2019-04-03T05:24:26.926Z,89.97
2019-04-03T05:26:57.600Z,89.94
2019-04-03T05:29:26.883Z,89.91
2019-04-03T05:31:56.337Z,89.86
2019-04-03T05:34:25.747Z,89.84
2019-04-03T05:36:55.163Z,90.02
2019-04-03T05:39:24.732Z,89.92
2019-04-03T05:41:54.594Z,90.02
2019-04-03T05:44:24.140Z,89.72
2019-04-03T05:46:53.525Z,89.85
2019-04-03T05:49:22.849Z,89.68
2019-04-03T05:51:52.360Z,89.06
2019-04-03T05:54:21.701Z,89.45
2019-04-03T05:56:51.756Z,89.40
2019-04-03T05:59:21.516Z,89.32
2019-04-03T06:01:51.021Z,89.24
2019-04-03T06:04:20.305Z,89.12
2019-04-03T06:06:49.745Z,89.03
2019-04-03T06:09:21.744Z,89.00
2019-04-03T06:11:51.916Z,89.03
2019-04-03T06:14:23.213Z,89.05
2019-04-03T06:16:55.671Z,89.04
2019-04-03T06:19:23.689Z,88.97
2019-04-03T06:21:52.937Z,88.90
2019-04-03T06:24:24.242Z,88.82
2019-04-03T06:26:53.374Z,88.76
2019-04-03T06:29:22.750Z,88.68
2019-04-03T06:31:52.001Z,88.71
2019-04-03T06:34:21.536Z,88.83
2019-04-03T06:36:51.177Z,88.97
2019-04-03T06:39:23.372Z,89.30
2019-04-03T06:41:51.798Z,89.42
2019-04-03T06:44:22.683Z,89.29
2019-04-03T06:46:54.026Z,90.04
2019-04-03T06:49:23.435Z,90.26
2019-04-03T06:51:52.745Z,90.58
2019-04-03T06:54:22.058Z,90.72
2019-04-03T06:56:52.634Z,90.77
2019-04-03T06:59:22.592Z,90.77
2019-04-03T07:01:52.907Z,90.84
2019-04-03T07:04:22.970Z,91.03
2019-04-03T07:06:55.220Z,90.97
2019-04-03T07:09:33.767Z,91.00
2019-04-03T07:11:57.132Z,90.94
2019-04-03T07:14:26.799Z,90.93
2019-04-03T07:16:56.645Z,91.17
2019-04-03T07:19:25.979Z,91.42
2019-04-03T07:21:55.982Z,91.28
2019-04-03T07:24:25.713Z,91.13
2019-04-03T07:26:55.025Z,90.81
2019-04-03T07:29:25.570Z,90.31
2019-04-03T07:31:55.755Z,90.75
2019-04-03T07:34:25.367Z,90.80
2019-04-03T07:36:54.626Z,90.34
2019-04-03T07:39:24.299Z,90.47
2019-04-03T07:41:54.828Z,90.25
2019-04-03T07:44:24.490Z,90.39
2019-04-03T07:46:55.238Z,90.17
2019-04-03T07:49:25.087Z,89.98
2019-04-03T07:51:54.365Z,89.63
2019-04-03T07:54:26.182Z,89.22
2019-04-03T07:56:57.403Z,88.82
2019-04-03T07:59:26.229Z,88.17
2019-04-03T08:01:55.616Z,89.11
2019-04-03T08:04:25.399Z,89.45
2019-04-03T08:06:55.461Z,89.74
2019-04-03T08:09:24.849Z,90.12
2019-04-03T08:11:54.322Z,90.56
2019-04-03T08:14:23.839Z,90.30
2019-04-03T08:16:53.071Z,90.01
2019-04-03T08:19:24.315Z,90.33
2019-04-03T08:21:53.583Z,90.23
2019-04-03T08:24:22.917Z,90.46
2019-04-03T08:26:52.735Z,90.26
2019-04-03T08:29:22.379Z,90.62
2019-04-03T08:31:51.780Z,90.63
2019-04-03T08:34:21.074Z,90.72
2019-04-03T08:36:50.297Z,90.76
2019-04-03T08:39:19.551Z,90.51
2019-04-03T08:41:48.868Z,90.45
2019-04-03T08:44:18.322Z,90.33
2019-04-03T08:46:47.593Z,89.27
2019-04-03T08:49:16.917Z,88.45
2019-04-03T08:51:46.174Z,87.95
2019-04-03T08:54:19.560Z,88.58
2019-04-03T08:56:49.493Z,89.53
2019-04-03T08:59:19.615Z,90.00
2019-04-03T09:01:48.951Z,89.85
2019-04-03T09:04:18.739Z,89.97
2019-04-03T09:06:48.151Z,90.35
2019-04-03T09:09:17.448Z,91.08
2019-04-03T09:11:46.838Z,90.90
2019-04-03T09:14:19.233Z,91.09
2019-04-03T09:16:47.274Z,91.21
2019-04-03T09:19:17.281Z,90.90
2019-04-03T09:21:50.205Z,91.24
2019-04-03T09:24:18.432Z,91.63
2019-04-03T09:26:47.928Z,91.79
2019-04-03T09:29:17.190Z,91.09
2019-04-03T09:31:47.484Z,90.88
2019-04-03T09:34:16.812Z,90.94
2019-04-03T09:36:46.047Z,91.53
2019-04-03T09:39:15.892Z,92.18
2019-04-03T09:41:45.297Z,92.66
2019-04-03T09:44:14.535Z,92.84
2019-04-03T09:46:45.571Z,91.91
2019-04-03T09:49:14.889Z,91.07
2019-04-03T09:51:47.395Z,90.51
2019-04-03T09:54:16.758Z,89.17
2019-04-03T09:56:57.797Z,89.75
2019-04-03T09:59:17.299Z,90.17
2019-04-03T10:01:47.829Z,91.43
2019-04-03T10:04:20.339Z,91.79
2019-04-03T10:06:48.678Z,91.12
2019-04-03T10:09:18.059Z,90.14
2019-04-03T10:11:48.731Z,89.66
2019-04-03T10:14:18.503Z,89.53
2019-04-03T10:16:47.950Z,88.99
2019-04-03T10:19:17.328Z,88.00
2019-04-03T10:21:46.618Z,87.88
2019-04-03T10:24:15.906Z,87.09
2019-04-03T10:26:45.356Z,86.01
2019-04-03T10:29:14.674Z,86.47
2019-04-03T10:31:43.964Z,86.38
2019-04-03T10:34:14.456Z,84.13
2019-04-03T10:36:44.216Z,84.21
2019-04-03T10:39:13.897Z,83.68
2019-04-03T10:41:43.327Z,84.78
2019-04-03T10:44:12.744Z,85.42
2019-04-03T10:46:43.288Z,85.30
2019-04-03T10:49:12.698Z,84.81
2019-04-03T10:51:42.160Z,84.68
2019-04-03T10:54:11.592Z,83.28
2019-04-03T10:56:40.978Z,82.86
2019-04-03T10:59:13.018Z,83.58
2019-04-03T11:01:41.577Z,83.23
2019-04-03T11:04:11.088Z,83.27
2019-04-03T11:06:40.321Z,83.08
2019-04-03T11:09:10.399Z,82.35
2019-04-03T11:11:42.707Z,81.95
2019-04-03T11:14:10.928Z,80.77
2019-04-03T11:16:40.595Z,80.50
2019-04-03T11:19:10.227Z,80.25
2019-04-03T11:21:39.807Z,80.61
2019-04-03T11:24:09.407Z,79.79
2019-04-03T11:26:38.807Z,80.13
2019-04-03T11:29:09.913Z,80.09
2019-04-03T11:31:41.909Z,80.02
2019-04-03T11:34:10.573Z,79.95
2019-04-03T11:36:39.948Z,79.38
2019-04-03T11:39:14.919Z,79.33
2019-04-03T11:41:41.371Z,78.62
2019-04-03T11:44:10.662Z,77.85
2019-04-03T11:46:40.144Z,77.07
2019-04-03T11:49:09.917Z,76.16
2019-04-03T11:51:39.617Z,76.65
2019-04-03T11:54:09.222Z,77.38
2019-04-03T11:56:38.536Z,76.68
2019-04-03T11:59:07.982Z,76.74
2019-04-03T12:01:37.403Z,77.05
2019-04-03T12:04:07.011Z,77.46
2019-04-03T12:06:36.998Z,76.97
2019-04-03T12:09:08.892Z,76.81
2019-04-03T12:11:39.322Z,76.19
2019-04-03T12:14:09.635Z,76.12
2019-04-03T12:16:41.493Z,75.00
2019-04-03T12:19:11.387Z,74.65
2019-04-03T12:21:41.252Z,74.82
2019-04-03T12:24:10.652Z,70.63
2019-04-03T12:26:42.489Z,71.14
2019-04-03T12:29:11.318Z,70.08
2019-04-03T12:31:40.707Z,69.48
2019-04-03T12:34:10.203Z,69.34
2019-04-03T12:36:39.572Z,67.83
2019-04-03T12:39:30.832Z,68.51
2019-04-03T12:42:00.456Z,67.22
2019-04-03T12:44:30.168Z,66.08
2019-04-03T12:46:59.461Z,64.28
2019-04-03T12:49:29.005Z,61.71
2019-04-03T12:51:58.249Z,60.72
2019-04-03T12:54:27.950Z,60.07
2019-04-03T12:57:00.239Z,60.29
2019-04-03T12:59:28.625Z,60.93
2019-04-03T13:01:58.331Z,60.63
2019-04-03T13:04:30.222Z,59.45
2019-04-03T13:06:58.851Z,60.51
2019-04-03T13:09:28.563Z,60.76
2019-04-03T13:11:58.342Z,62.28
2019-04-03T13:14:28.340Z,63.34
2019-04-03T13:16:59.368Z,63.70
2019-04-03T13:19:28.991Z,64.30
2019-04-03T13:21:58.261Z,64.90
2019-04-03T13:24:28.143Z,65.63
2019-04-03T13:26:58.921Z,66.46
2019-04-03T13:29:28.753Z,67.04
2019-04-03T13:31:58.705Z,67.02
2019-04-03T13:34:30.850Z,67.56
2019-04-03T13:36:59.257Z,67.95
2019-04-03T13:39:28.830Z,68.36
2019-04-03T13:41:58.410Z,67.08
2019-04-03T13:44:28.133Z,65.56
2019-04-03T13:46:58.322Z,64.88
2019-04-03T13:49:30.222Z,64.30
2019-04-03T13:52:03.921Z,62.82
2019-04-03T13:54:30.333Z,62.23
2019-04-03T13:56:59.856Z,57.48
2019-04-03T13:59:30.234Z,58.22
2019-04-03T14:01:59.940Z,56.17
2019-04-03T14:04:29.553Z,53.00
2019-04-03T14:07:01.299Z,50.00
2019-04-03T14:09:31.349Z,48.63
2019-04-03T14:12:02.670Z,48.68
2019-04-03T14:14:32.014Z,49.45
2019-04-03T14:17:02.015Z,49.80
2019-04-03T14:19:42.756Z,48.60
2019-04-03T14:22:02.934Z,49.48
2019-04-03T14:24:41.399Z,50.79
2019-04-03T14:27:16.474Z,51.98
2019-04-03T14:29:38.541Z,52.97
2019-04-03T14:32:07.195Z,54.37
2019-04-03T14:34:39.462Z,55.03
2019-04-03T14:37:08.529Z,56.24
2019-04-03T14:39:39.745Z,57.10
2019-04-03T14:42:09.564Z,57.61
2019-04-03T14:44:40.536Z,58.79
2019-04-03T14:47:10.596Z,59.78
2019-04-03T14:49:40.626Z,60.67
2019-04-03T14:52:10.649Z,61.31
2019-04-03T14:54:40.477Z,61.87
2019-04-03T14:57:19.187Z,62.49
2019-04-03T14:59:41.480Z,62.79
2019-04-03T15:02:11.025Z,63.31
2019-04-03T15:04:40.979Z,63.65
2019-04-03T15:07:11.033Z,64.12
2019-04-03T15:09:40.930Z,64.52
2019-04-03T15:12:12.268Z,64.83
2019-04-03T15:14:42.854Z,65.36
2019-04-03T15:17:12.503Z,65.50
2019-04-03T15:19:43.135Z,65.91
2019-04-03T15:22:14.351Z,66.31
2019-04-03T15:24:44.594Z,66.75
2019-04-03T15:27:14.899Z,66.62
2019-04-03T15:29:45.238Z,66.19
2019-04-03T15:32:17.647Z,66.57
2019-04-03T15:34:46.486Z,66.85
2019-04-03T15:37:16.112Z,67.15
2019-04-03T15:39:49.260Z,67.41
2019-04-03T15:42:17.578Z,67.54
2019-04-03T15:44:47.719Z,67.29
2019-04-03T15:47:20.651Z,67.61
2019-04-03T15:49:48.951Z,68.03
2019-04-03T15:52:18.699Z,68.49
2019-04-03T15:54:48.682Z,68.78
2019-04-03T15:57:20.078Z,68.21
2019-04-03T15:59:52.063Z,68.09
2019-04-03T16:02:21.486Z,67.83
2019-04-03T16:04:51.443Z,67.73
2019-04-03T16:07:21.683Z,67.48
2019-04-03T16:09:51.568Z,67.57
2019-04-03T16:12:22.295Z,67.72
2019-04-03T16:14:52.073Z,67.92
2019-04-03T16:17:21.588Z,68.25
2019-04-03T16:19:52.449Z,68.45
2019-04-03T16:22:22.711Z,68.70
2019-04-03T16:24:53.830Z,68.66
2019-04-03T16:27:23.576Z,69.49
2019-04-03T16:29:54.296Z,70.12
2019-04-03T16:32:26.463Z,70.46
2019-04-03T16:34:55.227Z,70.92
2019-04-03T16:37:25.472Z,71.14
2019-04-03T16:39:55.251Z,71.52
2019-04-03T16:42:26.270Z,71.75
2019-04-03T16:44:57.791Z,71.93
2019-04-03T16:47:28.036Z,72.14
2019-04-03T16:50:02.682Z,72.32
2019-04-03T16:52:32.463Z,72.48
2019-04-03T16:55:02.378Z,72.64
2019-04-03T16:57:32.246Z,73.01
2019-04-03T17:00:01.831Z,73.26
2019-04-03T17:02:31.874Z,73.53
2019-04-03T17:05:02.169Z,73.79
2019-04-03T17:07:32.592Z,74.13
2019-04-03T17:10:03.088Z,74.47
2019-04-03T17:12:33.139Z,74.82
2019-04-03T17:15:02.736Z,75.32
2019-04-03T17:17:32.782Z,75.78
2019-04-03T17:20:02.585Z,76.13
2019-04-03T17:22:32.140Z,76.73
2019-04-03T17:25:01.721Z,77.57
2019-04-03T17:27:31.630Z,78.09
2019-04-03T17:30:01.404Z,78.75
2019-04-03T17:32:31.676Z,79.29
2019-04-03T17:35:01.626Z,79.54
2019-04-03T17:37:31.906Z,79.57
2019-04-03T17:40:01.701Z,79.92
2019-04-03T17:42:31.280Z,80.15
2019-04-03T17:45:01.068Z,80.40
2019-04-03T17:47:30.830Z,80.61
2019-04-03T17:50:01.257Z,81.33
2019-04-03T17:52:30.956Z,81.45
2019-04-03T17:55:00.661Z,81.61
2019-04-03T17:57:30.572Z,81.89
2019-04-03T18:00:01.789Z,82.10
2019-04-03T18:02:32.057Z,82.32
2019-04-03T18:05:02.140Z,82.55
2019-04-03T18:07:31.735Z,82.78
2019-04-03T18:10:01.518Z,82.97
2019-04-03T18:12:31.176Z,83.19
2019-04-03T18:15:00.933Z,83.39
2019-04-03T18:17:32.251Z,83.58
2019-04-03T18:20:02.522Z,83.77
2019-04-03T18:22:33.487Z,84.00
2019-04-03T18:25:08.077Z,84.21
2019-04-03T18:27:39.464Z,84.49
2019-04-03T18:30:11.821Z,84.73
2019-04-03T18:32:45.669Z,84.98
2019-04-03T18:35:14.299Z,85.29
2019-04-03T18:37:44.160Z,85.57
2019-04-03T18:40:15.199Z,85.89
2019-04-03T18:42:45.137Z,86.07
2019-04-03T18:45:25.159Z,86.37
2019-04-03T18:47:46.787Z,86.62
2019-04-03T18:50:16.666Z,86.88
2019-04-03T18:52:46.668Z,87.16
2019-04-03T18:55:16.487Z,87.36
2019-04-03T18:57:46.125Z,87.71
2019-04-03T19:00:18.323Z,88.11
2019-04-03T19:02:48.106Z,88.31
2019-04-03T19:05:17.914Z,88.53
2019-04-03T19:07:47.596Z,88.68
2019-04-03T19:10:18.515Z,89.18
2019-04-03T19:12:49.040Z,89.40
2019-04-03T19:15:18.899Z,90.03
2019-04-03T19:17:59.325Z,90.11
2019-04-03T19:20:20.124Z,90.23
2019-04-03T19:23:01.555Z,90.42
2019-04-03T19:25:21.306Z,90.64
2019-04-03T19:27:50.966Z,90.87
2019-04-03T19:30:20.762Z,90.97
2019-04-03T19:32:50.529Z,91.26
2019-04-03T19:35:20.527Z,91.39
2019-04-03T19:37:50.223Z,91.73
2019-04-03T19:40:19.963Z,91.95
2019-04-03T19:42:49.796Z,92.21
2019-04-03T19:45:21.321Z,92.54
2019-04-03T19:47:54.539Z,93.71
2019-04-03T19:50:22.918Z,93.43
2019-04-03T19:52:53.078Z,93.51
2019-04-03T19:55:23.622Z,93.93
2019-04-03T19:57:53.875Z,94.33
2019-04-03T20:00:23.556Z,94.16
2019-04-03T20:02:54.723Z,94.45
2019-04-03T20:05:24.546Z,94.53
2019-04-03T20:07:54.305Z,95.49
2019-04-03T20:10:23.968Z,95.74
2019-04-03T20:12:53.740Z,96.00
2019-04-03T20:15:23.496Z,95.85
2019-04-03T20:17:54.883Z,96.25
2019-04-03T20:20:24.661Z,96.43
2019-04-03T20:22:54.745Z,96.66
2019-04-03T20:25:24.415Z,96.75
2019-04-03T20:27:56.802Z,96.71
2019-04-03T20:30:25.602Z,96.96
2019-04-03T20:32:55.261Z,97.29
2019-04-03T20:35:25.007Z,97.42
2019-04-03T20:37:56.805Z,97.65
2019-04-03T20:40:26.002Z,98.00
2019-04-03T20:42:55.769Z,98.32
2019-04-03T20:45:25.371Z,98.36
2019-04-03T20:47:57.197Z,98.42
2019-04-03T20:50:26.468Z,98.21
2019-04-03T20:52:57.165Z,98.15
2019-04-03T20:55:26.808Z,98.35
2019-04-03T20:57:56.427Z,98.38
2019-04-03T21:00:26.122Z,98.44
2019-04-03T21:02:56.378Z,98.50
2019-04-03T21:05:25.688Z,98.73
2019-04-03T21:07:55.875Z,98.69
2019-04-03T21:10:25.658Z,98.80
2019-04-03T21:12:54.918Z,98.86
2019-04-03T21:15:24.161Z,99.01
2019-04-03T21:17:53.483Z,99.06
2019-04-03T21:20:23.768Z,99.22
2019-04-03T21:22:53.907Z,99.30
2019-04-03T21:25:23.146Z,99.47
2019-04-03T21:27:52.599Z,99.64
2019-04-03T21:30:23.886Z,99.72
2019-04-03T21:32:52.963Z,99.64
2019-04-03T21:35:22.450Z,99.65
2019-04-03T21:37:51.753Z,99.62
2019-04-03T21:40:21.013Z,99.67
2019-04-03T21:42:50.399Z,99.73
2019-04-03T21:45:19.730Z,99.81
2019-04-03T21:47:49.007Z,99.86
2019-04-03T21:50:19.363Z,99.96
2019-04-03T21:52:49.333Z,100.00
2019-04-03T21:55:18.603Z,100.00
2019-04-03T21:57:48.042Z,100.00
2019-04-03T22:00:36.771Z,100.00
2019-04-03T22:03:06.903Z,100.00
2019-04-03T22:05:36.359Z,100.00
2019-04-03T22:08:05.760Z,100.00
2019-04-03T22:10:35.059Z,100.00
2019-04-03T22:13:05.867Z,100.00
2019-04-03T22:15:35.348Z,100.00
2019-04-03T22:18:04.677Z,100.00
2019-04-03T22:20:36.187Z,100.00
2019-04-03T22:23:05.574Z,100.00
2019-04-03T22:25:34.806Z,100.00
2019-04-03T22:28:04.087Z,100.00
2019-04-03T22:30:33.782Z,100.00
2019-04-03T22:33:03.083Z,100.00
2019-04-03T22:35:32.747Z,100.00
2019-04-03T22:38:02.241Z,100.00
2019-04-03T22:40:31.887Z,100.00
2019-04-03T22:43:01.272Z,100.00
2019-04-03T22:45:30.552Z,100.00
2019-04-03T22:47:59.807Z,100.00
2019-04-03T22:50:29.172Z,100.00
2019-04-03T22:52:58.460Z,100.00
2019-04-03T22:55:27.670Z,100.00
2019-04-03T22:57:57.262Z,100.00
2019-04-03T23:00:27.837Z,100.00
2019-04-03T23:02:57.240Z,100.00
2019-04-03T23:05:26.680Z,100.00
2019-04-03T23:07:56.419Z,100.00
2019-04-03T23:10:27.943Z,100.00
2019-04-03T23:12:57.820Z,100.00
2019-04-03T23:15:27.105Z,100.00
2019-04-03T23:17:56.444Z,100.00
2019-04-03T23:20:25.877Z,100.00
2019-04-03T23:22:56.557Z,100.00
2019-04-03T23:25:29.426Z,100.00
2019-04-03T23:27:57.455Z,100.00
2019-04-03T23:30:26.729Z,100.00
2019-04-03T23:32:56.033Z,100.00
2019-04-03T23:35:25.356Z,100.00
2019-04-03T23:37:55.785Z,100.00
2019-04-03T23:40:25.797Z,100.00
2019-04-03T23:42:55.162Z,100.00
2019-04-03T23:45:26.308Z,100.00
2019-04-03T23:47:55.575Z,100.00
2019-04-03T23:50:24.863Z,100.00
2019-04-03T23:52:54.099Z,100.00
2019-04-03T23:55:23.358Z,100.00
2019-04-03T23:57:52.746Z,100.00
